METAR AND TAF INFORMATION
METAR FOR SKVV
ADDS - METARS form results

(2159 UTC 02 July 2020)
Data provider http://aviationweather.gov/metar/data/
 
METAR text: SKVV 022100Z 06006KT 9999 SCT020 SCT090 28/22 A2987
Conditions at: SKVV (VILLAVICENCIO/VA, CO) observed 2100 UTC 02 July 2020
Temperature: 28.0°C (82°F)
Dewpoint: 22.0°C (72°F) [RH = 70%]
Pressure (altimeter): 29.87 inches Hg (1011.6 mb)
Winds: from the ENE (60 degrees) at 7 MPH (6 knots; 3.1 m/s)
Visibility: 6 or more miles (10+ km)
Ceiling: at least 12,000 feet AGL
Clouds: scattered clouds at 2000 feet AGL
scattered clouds at 9000 feet AGL
Weather: no significant weather observed at this time

 AIRPORT MAP

 RUNWAY INFORMATION
Runway 05 Runway length 5616 ft Runway width 98 ft
Runway elevation 1394 ft Runway displaced threshold 0 ft Runway heading 39
Runway 23 Runway length 5616 ft Runway width 98 ft
Runway elevation 1365 ft Runway displaced threshold 0 ft Runway heading 219

 AIRPORT FREQUENCIES
Type APP Name VILLAVICEN Frequency 119.3 MHZ
Type RDO Name VILLAVICEN Frequency 348.8 MHZ
Type TWR Name TWR Frequency 118.7 MHZ

 AIRPORT NEAR NAVIGATION AIDS